createdAt,value
2022-08-01T00:00:20.477Z,101146.16
2022-08-01T00:02:24.338Z,101139.09
2022-08-01T00:04:28.127Z,101142.59
2022-08-01T00:06:31.656Z,101144.34
2022-08-01T00:08:36.528Z,101137.19
2022-08-01T00:10:40.456Z,101146.94
2022-08-01T00:12:47.553Z,101147.00
2022-08-01T00:14:51.004Z,101151.41
2022-08-01T00:16:54.911Z,101142.47
2022-08-01T00:18:58.570Z,101146.97
2022-08-01T00:21:02.240Z,101142.53
2022-08-01T00:23:05.996Z,101143.38
2022-08-01T00:25:12.113Z,101137.13
2022-08-01T00:27:15.539Z,101129.22
2022-08-01T00:30:10.153Z,101139.78
2022-08-01T00:31:43.852Z,101137.97
2022-08-01T00:33:47.517Z,101140.66
2022-08-01T00:35:50.906Z,101137.97
2022-08-01T00:37:54.543Z,101144.31
2022-08-01T00:39:57.977Z,101140.78
2022-08-01T00:42:07.675Z,101136.34
2022-08-01T00:44:11.861Z,101143.56
2022-08-01T00:46:15.693Z,101122.41
2022-08-01T00:48:19.342Z,101141.72
2022-08-01T00:50:22.875Z,101139.19
2022-08-01T00:52:29.086Z,101147.16
2022-08-01T00:54:32.995Z,101141.81
2022-08-01T00:56:36.557Z,101141.94
2022-08-01T00:58:41.403Z,101121.69
2022-08-01T01:00:52.589Z,101144.63
2022-08-01T01:02:57.847Z,101135.81
2022-08-01T01:05:01.400Z,101140.19
2022-08-01T01:07:11.650Z,101143.00
2022-08-01T01:09:31.169Z,101144.84
2022-08-01T01:11:45.307Z,101138.56
2022-08-01T01:13:59.350Z,101131.56
2022-08-01T01:16:10.520Z,101144.84
2022-08-01T01:18:32.735Z,101148.38
2022-08-01T01:20:40.944Z,101150.97
2022-08-01T01:22:55.852Z,101148.44
2022-08-01T01:25:19.781Z,101142.25
2022-08-01T01:27:31.102Z,101135.19
2022-08-01T01:30:00.540Z,101150.16
2022-08-01T01:32:08.798Z,101144.00
2022-08-01T01:34:15.812Z,101150.16
2022-08-01T01:36:21.375Z,101145.81
2022-08-01T01:38:29.952Z,101150.19
2022-08-01T01:40:35.522Z,101149.31
2022-08-01T01:42:40.915Z,101147.53
2022-08-01T01:44:46.807Z,101156.41
2022-08-01T01:46:52.343Z,101145.81
2022-08-01T01:48:58.614Z,101151.03
2022-08-01T01:51:03.289Z,101143.06
2022-08-01T01:53:08.767Z,101145.69
2022-08-01T01:55:21.413Z,101155.34
2022-08-01T01:57:26.480Z,101158.06
2022-08-01T01:59:33.907Z,101152.84
2022-08-01T02:01:38.879Z,101153.75
2022-08-01T02:04:04.594Z,101149.34
2022-08-01T02:06:08.924Z,101151.13
2022-08-01T02:08:17.347Z,101147.59
2022-08-01T02:10:21.651Z,101142.38
2022-08-01T02:12:38.073Z,101144.97
2022-08-01T02:14:45.897Z,101143.19
2022-08-01T02:16:52.367Z,101138.72
2022-08-01T02:18:56.079Z,101139.63
2022-08-01T02:21:01.149Z,101147.50
2022-08-01T02:23:09.602Z,101132.53
2022-08-01T02:25:22.527Z,101136.03
2022-08-01T02:27:31.136Z,101123.69
2022-08-01T02:29:45.674Z,101113.16
2022-08-01T02:31:55.844Z,101138.66
2022-08-01T02:34:04.083Z,101136.97
2022-08-01T02:36:30.192Z,101142.22
2022-08-01T02:38:36.190Z,101140.53
2022-08-01T02:40:42.663Z,101141.38
2022-08-01T02:42:49.510Z,101132.47
2022-08-01T02:44:56.006Z,101129.88
2022-08-01T02:47:04.256Z,101132.47
2022-08-01T02:49:11.385Z,101126.34
2022-08-01T02:51:17.040Z,101135.19
2022-08-01T02:53:23.063Z,101132.53
2022-08-01T02:55:48.758Z,101136.94
2022-08-01T02:57:59.289Z,101121.97
2022-08-01T03:00:05.222Z,101125.50
2022-08-01T03:02:12.742Z,101122.84
2022-08-01T03:04:19.961Z,101106.19
2022-08-01T03:06:26.245Z,101121.06
2022-08-01T03:08:32.063Z,101129.03
2022-08-01T03:10:38.954Z,101132.53
2022-08-01T03:12:43.466Z,101127.31
2022-08-01T03:14:52.857Z,101132.66
2022-08-01T03:16:58.217Z,101131.78
2022-08-01T03:19:05.712Z,101130.81
2022-08-01T03:21:11.449Z,101124.63
2022-08-01T03:23:17.642Z,101138.81
2022-08-01T03:25:23.126Z,101140.53
2022-08-01T03:27:27.445Z,101144.91
2022-08-01T03:29:34.013Z,101147.53
2022-08-01T03:31:39.416Z,101145.75
2022-08-01T03:33:43.601Z,101145.81
2022-08-01T03:35:51.811Z,101152.00
2022-08-01T03:38:15.851Z,101147.59
2022-08-01T03:40:37.821Z,101147.59
2022-08-01T03:42:47.056Z,101157.31
2022-08-01T03:44:55.971Z,101154.66
2022-08-01T03:47:02.847Z,101144.97
2022-08-01T03:49:16.814Z,101147.63
2022-08-01T03:51:24.892Z,101151.19
2022-08-01T03:53:33.308Z,101127.44
2022-08-01T03:55:40.110Z,101141.44
2022-08-01T03:57:45.801Z,101147.63
2022-08-01T03:59:50.847Z,101143.22
2022-08-01T04:01:55.726Z,101148.50
2022-08-01T04:04:00.790Z,101146.75
2022-08-01T04:06:06.238Z,101152.00
2022-08-01T04:08:11.460Z,101147.56
2022-08-01T04:10:15.397Z,101154.63
2022-08-01T04:12:18.880Z,101151.09
2022-08-01T04:14:25.888Z,101144.91
2022-08-01T04:16:32.838Z,101143.03
2022-08-01T04:18:42.275Z,101151.00
2022-08-01T04:20:48.706Z,101145.63
2022-08-01T04:22:52.478Z,101150.00
2022-08-01T04:24:59.593Z,101146.47
2022-08-01T04:27:04.247Z,101149.19
2022-08-01T04:29:10.190Z,101155.47
2022-08-01T04:31:17.958Z,101160.81
2022-08-01T04:33:22.522Z,101157.22
2022-08-01T04:36:02.856Z,101161.66
2022-08-01T04:37:52.909Z,101166.16
2022-08-01T04:40:00.276Z,101157.31
2022-08-01T04:42:05.479Z,101158.22
2022-08-01T04:44:09.309Z,101071.16
2022-08-01T04:46:15.142Z,101168.81
2022-08-01T04:48:22.610Z,101172.34
2022-08-01T04:50:26.933Z,101176.72
2022-08-01T04:52:36.879Z,101177.63
2022-08-01T04:54:40.367Z,101177.63
2022-08-01T04:56:45.267Z,101177.63
2022-08-01T04:59:08.931Z,101182.06
2022-08-01T05:01:13.067Z,101176.78
2022-08-01T05:03:16.720Z,101172.41
2022-08-01T05:05:21.495Z,101181.16
2022-08-01T05:07:25.444Z,101184.66
2022-08-01T05:09:31.225Z,101180.22
2022-08-01T05:11:35.068Z,101187.31
2022-08-01T05:13:39.926Z,101191.69
2022-08-01T05:15:43.494Z,101184.63
2022-08-01T05:17:47.779Z,101147.56
2022-08-01T05:19:51.677Z,101189.81
2022-08-01T05:21:55.192Z,101193.34
2022-08-01T05:26:08.910Z,101196.03
2022-08-01T05:28:12.940Z,101196.03
2022-08-01T05:30:24.408Z,101196.00
2022-08-01T05:32:28.198Z,101198.66
2022-08-01T05:34:31.686Z,101194.31
2022-08-01T05:36:35.542Z,101204.13
2022-08-01T05:38:39.157Z,101201.47
2022-08-01T05:40:42.760Z,101207.63
2022-08-01T05:42:46.386Z,101207.63
2022-08-01T05:44:51.365Z,101202.28
2022-08-01T05:46:56.177Z,101204.88
2022-08-01T05:49:00.194Z,101208.44
2022-08-01T05:51:03.756Z,101211.06
2022-08-01T05:53:07.202Z,101204.91
2022-08-01T05:55:11.341Z,101209.28
2022-08-01T05:57:15.367Z,101205.72
2022-08-01T05:59:19.007Z,101203.88
2022-08-01T06:01:22.616Z,101209.13
2022-08-01T06:03:31.988Z,101212.63
2022-08-01T06:05:35.587Z,101216.13
2022-08-01T06:07:39.858Z,101218.84
2022-08-01T06:09:43.259Z,101212.72
2022-08-01T06:11:46.842Z,101209.13
2022-08-01T06:13:50.350Z,101208.22
2022-08-01T06:15:54.003Z,101206.44
2022-08-01T06:17:57.661Z,101192.38
2022-08-01T06:20:02.684Z,101205.59
2022-08-01T06:22:06.622Z,101215.28
2022-08-01T06:24:10.144Z,101215.28
2022-08-01T06:26:14.103Z,101210.81
2022-08-01T06:28:17.553Z,101224.09
2022-08-01T06:30:21.251Z,101219.78
2022-08-01T06:32:26.828Z,101209.25
2022-08-01T06:34:31.025Z,101210.16
2022-08-01T06:36:35.898Z,101206.53
2022-08-01T06:38:39.688Z,101215.34
2022-08-01T06:40:43.666Z,101209.06
2022-08-01T06:42:47.669Z,101213.34
2022-08-01T06:44:51.623Z,101211.47
2022-08-01T06:46:55.886Z,101212.28
2022-08-01T06:49:00.419Z,101207.78
2022-08-01T06:51:10.059Z,101212.09
2022-08-01T06:53:14.974Z,101205.09
2022-08-01T06:55:18.596Z,101206.09
2022-08-01T06:57:22.145Z,101206.09
2022-08-01T06:59:25.597Z,101213.22
2022-08-01T07:01:29.234Z,101209.72
2022-08-01T07:03:53.537Z,101215.00
2022-08-01T07:05:56.299Z,101215.94
2022-08-01T07:08:00.221Z,101215.88
2022-08-01T07:10:06.951Z,101220.31
2022-08-01T07:12:10.985Z,101201.78
2022-08-01T07:14:14.623Z,101214.97
2022-08-01T07:16:19.110Z,101206.19
2022-08-01T07:18:22.538Z,101216.81
2022-08-01T07:20:32.909Z,101211.47
2022-08-01T07:22:38.571Z,101215.91
2022-08-01T07:24:45.936Z,101207.03
2022-08-01T07:26:54.025Z,101213.25
2022-08-01T07:28:58.444Z,101201.75
2022-08-01T07:31:03.011Z,101213.22
2022-08-01T07:33:06.472Z,101209.66
2022-08-01T07:35:11.008Z,101217.56
2022-08-01T07:37:14.593Z,101215.78
2022-08-01T07:39:18.128Z,101221.97
2022-08-01T07:41:21.688Z,101217.44
2022-08-01T07:43:56.086Z,101226.19
2022-08-01T07:46:01.516Z,101234.97
2022-08-01T07:48:08.299Z,101225.31
2022-08-01T07:50:13.697Z,101231.44
2022-08-01T07:52:17.522Z,101231.28
2022-08-01T07:54:21.477Z,101235.56
2022-08-01T07:56:37.540Z,101235.59
2022-08-01T07:58:40.964Z,101230.19
2022-08-01T08:00:46.042Z,101236.44
2022-08-01T08:02:49.610Z,101221.44
2022-08-01T08:04:52.997Z,101228.59
2022-08-01T08:06:56.613Z,101228.59
2022-08-01T08:09:00.075Z,101233.78
2022-08-01T08:11:06.014Z,101228.34
2022-08-01T08:13:09.600Z,101230.06
2022-08-01T08:15:13.124Z,101227.38
2022-08-01T08:17:18.591Z,101234.63
2022-08-01T08:19:22.071Z,101229.31
2022-08-01T08:21:41.639Z,101236.38
2022-08-01T08:24:02.781Z,101234.50
2022-08-01T08:26:06.960Z,101246.69
2022-08-01T08:28:10.385Z,101228.97
2022-08-01T08:30:14.848Z,101239.78
2022-08-01T08:32:19.763Z,101239.69
2022-08-01T08:34:23.373Z,101238.66
2022-08-01T08:36:31.065Z,101240.22
2022-08-01T08:38:35.097Z,101247.09
2022-08-01T08:40:39.957Z,101249.63
2022-08-01T08:42:43.597Z,101248.97
2022-08-01T08:44:47.268Z,101233.31
2022-08-01T08:46:52.995Z,101261.66
2022-08-01T08:48:58.491Z,101259.00
2022-08-01T08:51:02.758Z,101252.78
2022-08-01T08:53:06.726Z,101256.25
2022-08-01T08:55:11.890Z,101257.88
2022-08-01T08:57:16.459Z,101249.72
2022-08-01T08:59:20.087Z,101248.56
2022-08-01T09:01:23.586Z,101252.84
2022-08-01T09:03:27.071Z,101245.00
2022-08-01T09:05:38.943Z,101252.94
2022-08-01T09:07:42.837Z,101253.66
2022-08-01T09:09:49.142Z,101259.06
2022-08-01T09:11:56.807Z,101260.78
2022-08-01T09:14:11.243Z,101260.66
2022-08-01T09:16:19.319Z,101259.09
2022-08-01T09:18:34.940Z,101265.47
2022-08-01T09:20:39.729Z,101262.81
2022-08-01T09:22:47.753Z,101270.81
2022-08-01T09:25:02.151Z,101269.56
2022-08-01T09:27:19.751Z,101264.06
2022-08-01T09:29:37.196Z,101271.06
2022-08-01T09:31:42.727Z,101265.06
2022-08-01T09:33:54.142Z,101282.59
2022-08-01T09:35:59.954Z,101273.72
2022-08-01T09:38:17.241Z,101269.91
2022-08-01T09:40:20.871Z,101262.50
2022-08-01T09:42:28.807Z,101270.47
2022-08-01T09:44:43.064Z,101274.66
2022-08-01T09:46:52.703Z,101253.06
2022-08-01T09:49:01.310Z,101274.16
2022-08-01T09:51:09.616Z,101273.22
2022-08-01T09:53:29.631Z,101268.06
2022-08-01T09:55:34.134Z,101252.63
2022-08-01T09:57:37.543Z,101274.44
2022-08-01T09:59:57.783Z,101280.59
2022-08-01T10:02:02.379Z,101281.44
2022-08-01T10:04:09.830Z,101280.63
2022-08-01T10:06:24.847Z,101279.81
2022-08-01T10:08:29.145Z,101272.56
2022-08-01T10:10:33.212Z,101271.56
2022-08-01T10:12:37.343Z,101267.03
2022-08-01T10:14:41.616Z,101267.75
2022-08-01T10:16:53.457Z,101248.19
2022-08-01T10:18:58.807Z,101263.19
2022-08-01T10:21:08.902Z,101266.78
2022-08-01T10:23:17.664Z,101265.91
2022-08-01T10:25:42.289Z,101266.53
2022-08-01T10:27:50.326Z,101260.84
2022-08-01T10:30:05.406Z,101259.81
2022-08-01T10:32:13.486Z,101264.97
2022-08-01T10:34:19.592Z,101269.38
2022-08-01T10:36:27.116Z,101245.88
2022-08-01T10:38:33.846Z,101264.97
2022-08-01T10:40:39.790Z,101255.44
2022-08-01T10:42:44.394Z,101254.69
2022-08-01T10:44:49.168Z,101264.97
2022-08-01T10:46:58.964Z,101252.97
2022-08-01T10:49:09.325Z,101258.19
2022-08-01T10:51:18.107Z,101251.94
2022-08-01T10:53:31.568Z,101255.81
2022-08-01T10:56:02.729Z,101239.75
2022-08-01T10:58:10.132Z,101245.44
2022-08-01T11:00:20.165Z,101257.09
2022-08-01T11:02:32.876Z,101254.66
2022-08-01T11:04:53.325Z,101250.03
2022-08-01T11:07:06.832Z,101252.31
2022-08-01T11:09:35.385Z,101246.00
2022-08-01T11:12:01.075Z,101251.66
2022-08-01T11:14:09.332Z,101252.81
2022-08-01T11:16:28.321Z,101243.41
2022-08-01T11:18:33.803Z,101242.03
2022-08-01T11:21:57.472Z,101239.53
2022-08-01T11:23:25.072Z,101242.22
2022-08-01T11:26:05.180Z,101237.06
2022-08-01T11:28:32.487Z,101244.56
2022-08-01T11:30:38.868Z,101240.81
2022-08-01T11:33:10.828Z,101241.63
2022-08-01T11:35:12.226Z,101250.41
2022-08-01T11:37:30.396Z,101235.50
2022-08-01T11:39:38.673Z,101236.81
2022-08-01T11:41:44.280Z,101228.72
2022-08-01T11:43:59.669Z,101225.38
2022-08-01T11:46:03.368Z,101226.00
2022-08-01T11:48:19.699Z,101226.00
2022-08-01T11:50:37.151Z,101204.41
2022-08-01T11:52:43.369Z,101218.97
2022-08-01T11:54:49.170Z,101229.34
2022-08-01T11:56:57.123Z,101238.78
2022-08-01T11:59:02.670Z,101174.47
2022-08-01T12:01:08.739Z,101214.47
2022-08-01T12:03:19.175Z,101237.41
2022-08-01T12:05:37.813Z,101238.56
2022-08-01T12:07:51.268Z,101216.00
2022-08-01T12:10:04.280Z,101229.28
2022-08-01T12:12:08.274Z,101232.88
2022-08-01T12:14:18.109Z,101216.41
2022-08-01T12:16:27.594Z,101196.06
2022-08-01T12:18:40.646Z,101197.22
2022-08-01T12:21:01.536Z,101220.66
2022-08-01T12:23:08.358Z,101231.38
2022-08-01T12:25:13.727Z,101201.41
2022-08-01T12:27:26.654Z,101231.59
2022-08-01T12:29:38.971Z,101210.13
2022-08-01T12:31:42.461Z,101219.47
2022-08-01T12:33:46.057Z,101231.09
2022-08-01T12:35:50.097Z,101222.72
2022-08-01T12:37:56.366Z,101214.22
2022-08-01T12:39:59.847Z,101246.44
2022-08-01T12:42:03.597Z,101231.75
2022-08-01T12:44:15.921Z,101203.13
2022-08-01T12:46:22.647Z,101230.84
2022-08-01T12:48:27.396Z,101228.47
2022-08-01T12:50:33.042Z,101219.75
2022-08-01T12:52:38.668Z,101234.00
2022-08-01T12:55:03.981Z,101184.25
2022-08-01T12:57:24.321Z,101218.53
2022-08-01T12:59:30.617Z,101216.41
2022-08-01T13:01:35.564Z,101217.88
2022-08-01T13:03:39.090Z,101222.88
2022-08-01T13:05:44.913Z,101140.28
2022-08-01T13:07:51.483Z,101200.47
2022-08-01T13:09:55.021Z,101180.75
2022-08-01T13:12:10.915Z,101190.03
2022-08-01T13:14:28.913Z,101197.56
2022-08-01T13:16:55.899Z,101197.91
2022-08-01T13:18:58.577Z,101215.31
2022-08-01T13:21:12.961Z,101175.47
2022-08-01T13:23:21.432Z,101218.69
2022-08-01T13:25:53.139Z,101220.69
2022-08-01T13:28:18.168Z,101207.78
2022-08-01T13:30:23.907Z,101194.03
2022-08-01T13:32:31.660Z,101186.38
2022-08-01T13:34:38.259Z,101223.28
2022-08-01T13:36:48.571Z,101161.09
2022-08-01T13:39:10.493Z,101222.97
2022-08-01T13:41:14.081Z,101217.59
2022-08-01T13:43:17.783Z,101212.47
2022-08-01T13:45:22.459Z,101158.97
2022-08-01T13:47:32.161Z,101172.59
2022-08-01T13:49:38.320Z,101214.31
2022-08-01T13:51:46.738Z,101222.31
2022-08-01T13:53:50.603Z,101210.09
2022-08-01T13:55:54.136Z,101217.78
2022-08-01T13:57:57.726Z,101215.09
2022-08-01T14:00:01.709Z,101221.66
2022-08-01T14:02:15.377Z,101221.97
2022-08-01T14:04:19.774Z,101215.78
2022-08-01T14:06:24.662Z,101209.13
2022-08-01T14:08:28.289Z,101216.00
2022-08-01T14:10:31.719Z,101210.56
2022-08-01T14:12:35.383Z,101209.53
2022-08-01T14:14:39.264Z,101198.84
2022-08-01T14:16:45.684Z,101217.06
2022-08-01T14:18:49.353Z,101219.06
2022-08-01T14:20:53.744Z,101214.19
2022-08-01T14:23:00.254Z,101209.78
2022-08-01T14:25:03.940Z,101210.63
2022-08-01T14:27:08.828Z,101206.03
2022-08-01T14:29:12.305Z,101218.47
2022-08-01T14:31:15.878Z,101177.53
2022-08-01T14:33:19.438Z,101208.50
2022-08-01T14:35:23.338Z,101211.44
2022-08-01T14:37:29.320Z,101201.34
2022-08-01T14:39:35.952Z,101194.81
2022-08-01T14:41:39.870Z,101184.09
2022-08-01T14:43:45.503Z,101214.50
2022-08-01T14:45:50.953Z,101218.88
2022-08-01T14:47:54.570Z,101203.91
2022-08-01T14:49:58.045Z,101098.28
2022-08-01T14:52:01.508Z,101195.56
2022-08-01T14:54:05.261Z,101213.94
2022-08-01T14:56:10.699Z,101215.03
2022-08-01T14:58:14.326Z,101190.72
2022-08-01T15:00:18.481Z,101196.25
2022-08-01T15:02:22.200Z,101214.53
2022-08-01T15:04:25.909Z,101184.41
2022-08-01T15:06:29.550Z,101218.53
2022-08-01T15:08:33.390Z,101185.19
2022-08-01T15:10:37.142Z,101217.69
2022-08-01T15:12:50.364Z,101205.00
2022-08-01T15:14:54.506Z,101194.16
2022-08-01T15:16:58.056Z,101218.13
2022-08-01T15:19:01.517Z,101193.56
2022-08-01T15:21:04.980Z,101214.97
2022-08-01T15:23:08.523Z,101225.69
2022-08-01T15:25:12.567Z,101222.22
2022-08-01T15:27:16.331Z,101149.78
2022-08-01T15:29:21.144Z,101192.41
2022-08-01T15:31:24.646Z,101231.59
2022-08-01T15:33:31.247Z,101230.97
2022-08-01T15:35:34.774Z,101229.69
2022-08-01T15:37:42.581Z,101111.63
2022-08-01T15:39:46.595Z,101227.41
2022-08-01T15:41:50.080Z,101228.59
2022-08-01T15:43:55.885Z,101247.63
2022-08-01T15:46:02.003Z,101245.06
2022-08-01T15:48:05.824Z,101225.91
2022-08-01T15:50:10.104Z,101250.72
2022-08-01T15:52:22.090Z,101237.81
2022-08-01T15:54:26.490Z,101251.56
2022-08-01T15:56:31.046Z,101247.44
2022-08-01T15:58:34.828Z,101211.47
2022-08-01T16:00:39.244Z,101250.28
2022-08-01T16:02:44.680Z,101255.63
2022-08-01T16:04:48.268Z,101245.00
2022-08-01T16:06:52.061Z,101245.00
2022-08-01T16:08:55.701Z,101241.88
2022-08-01T16:10:59.240Z,101234.53
2022-08-01T16:13:06.939Z,101242.59
2022-08-01T16:15:12.240Z,101231.75
2022-08-01T16:17:15.798Z,101220.84
2022-08-01T16:19:20.678Z,101240.50
2022-08-01T16:21:25.065Z,101251.13
2022-08-01T16:23:28.914Z,101212.25
2022-08-01T16:25:32.380Z,101245.34
2022-08-01T16:27:38.612Z,101225.66
2022-08-01T16:29:42.660Z,101224.47
2022-08-01T16:31:46.162Z,101232.13
2022-08-01T16:33:58.161Z,101252.88
2022-08-01T16:36:07.348Z,101242.22
2022-08-01T16:38:20.966Z,101204.53
2022-08-01T16:40:25.625Z,101257.63
2022-08-01T16:42:29.454Z,101248.97
2022-08-01T16:44:34.278Z,101229.19
2022-08-01T16:46:38.058Z,101231.00
2022-08-01T16:48:42.412Z,101234.72
2022-08-01T16:50:49.247Z,101230.69
2022-08-01T16:52:54.075Z,101248.75
2022-08-01T16:54:58.531Z,101247.75
2022-08-01T16:57:08.722Z,101230.19
2022-08-01T16:59:12.555Z,101236.59
2022-08-01T17:01:58.107Z,101247.94
2022-08-01T17:03:52.750Z,101257.47
2022-08-01T17:05:58.224Z,101256.56
2022-08-01T17:08:03.077Z,101233.19
2022-08-01T17:10:07.946Z,101261.19
2022-08-01T17:12:14.051Z,101264.91
2022-08-01T17:14:25.572Z,101244.16
2022-08-01T17:16:29.141Z,101245.22
2022-08-01T17:18:32.759Z,101260.13
2022-08-01T17:20:36.306Z,101238.13
2022-08-01T17:22:39.775Z,101264.59
2022-08-01T17:24:45.294Z,101232.06
2022-08-01T17:26:48.970Z,101258.44
2022-08-01T17:28:52.650Z,101242.31
2022-08-01T17:30:56.104Z,101253.41
2022-08-01T17:32:59.696Z,101239.53
2022-08-01T17:35:03.211Z,101266.38
2022-08-01T17:37:07.038Z,101259.75
2022-08-01T17:39:12.380Z,101235.34
2022-08-01T17:41:17.313Z,101263.59
2022-08-01T17:43:20.765Z,101254.69
2022-08-01T17:45:27.985Z,101174.19
2022-08-01T17:47:49.805Z,101259.47
2022-08-01T17:49:55.285Z,101229.81
2022-08-01T17:51:59.065Z,101266.34
2022-08-01T17:54:02.596Z,101257.50
2022-08-01T17:56:06.554Z,101237.03
2022-08-01T17:58:13.144Z,101267.75
2022-08-01T18:00:17.281Z,101233.50
2022-08-01T18:02:20.813Z,101261.88
2022-08-01T18:04:24.860Z,101264.72
2022-08-01T18:06:28.466Z,101254.22
2022-08-01T18:08:32.039Z,101270.25
2022-08-01T18:10:39.862Z,101274.00
2022-08-01T18:12:43.686Z,101203.09
2022-08-01T18:14:48.732Z,101271.44
2022-08-01T18:16:52.820Z,101257.91
2022-08-01T18:18:57.675Z,101258.06
2022-08-01T18:21:01.270Z,101259.50
2022-08-01T18:23:08.648Z,101257.22
2022-08-01T18:25:12.223Z,101275.13
2022-08-01T18:27:15.739Z,101238.72
2022-08-01T18:29:23.210Z,101283.16
2022-08-01T18:31:44.545Z,101284.44
2022-08-01T18:33:48.113Z,101285.47
2022-08-01T18:35:54.403Z,101245.09
2022-08-01T18:37:58.209Z,101217.34
2022-08-01T18:40:02.239Z,101298.22
2022-08-01T18:42:07.332Z,101292.03
2022-08-01T18:44:10.999Z,101291.38
2022-08-01T18:46:14.480Z,101295.03
2022-08-01T18:48:19.340Z,101289.09
2022-08-01T18:50:24.205Z,101284.91
2022-08-01T18:52:28.364Z,101245.34
2022-08-01T18:54:35.199Z,101292.94
2022-08-01T18:56:38.763Z,101303.66
2022-08-01T18:58:44.020Z,101302.81
2022-08-01T19:00:47.472Z,101301.94
2022-08-01T19:02:50.880Z,101305.56
2022-08-01T19:04:55.791Z,101283.91
2022-08-01T19:06:59.278Z,101318.44
2022-08-01T19:09:03.572Z,101297.28
2022-08-01T19:11:07.500Z,101306.09
2022-08-01T19:13:11.720Z,101305.22
2022-08-01T19:15:15.157Z,101324.78
2022-08-01T19:17:19.730Z,101285.03
2022-08-01T19:19:28.084Z,101324.78
2022-08-01T19:21:33.526Z,101301.97
2022-08-01T19:23:55.077Z,101321.34
2022-08-01T19:25:59.708Z,101338.31
2022-08-01T19:28:04.384Z,101318.03
2022-08-01T19:30:09.658Z,101331.34
2022-08-01T19:32:13.123Z,101340.38
2022-08-01T19:34:17.800Z,101344.03
2022-08-01T19:36:21.829Z,101340.66
2022-08-01T19:38:32.737Z,101326.69
2022-08-01T19:40:36.722Z,101346.09
2022-08-01T19:42:42.633Z,101348.84
2022-08-01T19:44:47.757Z,101356.88
2022-08-01T19:46:51.907Z,101361.31
2022-08-01T19:48:55.660Z,101359.59
2022-08-01T19:51:03.429Z,101358.66
2022-08-01T19:53:08.402Z,101357.75
2022-08-01T19:55:15.067Z,101362.22
2022-08-01T19:57:18.698Z,101367.44
2022-08-01T19:59:23.896Z,101349.81
2022-08-01T20:01:27.555Z,101362.97
2022-08-01T20:03:32.642Z,101366.66
2022-08-01T20:05:37.234Z,101366.78
2022-08-01T20:07:41.600Z,101365.06
2022-08-01T20:09:48.315Z,101368.69
2022-08-01T20:11:54.720Z,101375.59
2022-08-01T20:14:00.405Z,101367.53
2022-08-01T20:16:05.301Z,101372.81
2022-08-01T20:18:08.783Z,101367.44
2022-08-01T20:20:12.923Z,101369.31
2022-08-01T20:22:22.156Z,101345.47
2022-08-01T20:24:28.040Z,101363.78
2022-08-01T20:26:32.787Z,101376.34
2022-08-01T20:28:41.798Z,101363.19
2022-08-01T20:30:46.017Z,101375.69
2022-08-01T20:32:50.033Z,101380.25
2022-08-01T20:34:54.966Z,101382.88
2022-08-01T20:36:59.755Z,101383.78
2022-08-01T20:39:04.124Z,101388.16
2022-08-01T20:41:08.124Z,101379.13
2022-08-01T20:43:13.793Z,101381.91
2022-08-01T20:45:18.989Z,101389.88
2022-08-01T20:47:23.235Z,101381.06
2022-08-01T20:49:27.963Z,101381.09
2022-08-01T20:51:31.557Z,101370.56
2022-08-01T20:53:40.822Z,101374.34
2022-08-01T20:55:49.799Z,101373.44
2022-08-01T20:57:55.235Z,101382.47
2022-08-01T21:00:02.781Z,101348.94
2022-08-01T21:02:18.028Z,101375.34
2022-08-01T21:04:39.087Z,101376.13
2022-08-01T21:06:45.165Z,101377.78
2022-08-01T21:08:49.953Z,101377.00
2022-08-01T21:10:57.890Z,101379.72
2022-08-01T21:13:05.682Z,101387.69
2022-08-01T21:15:12.767Z,101389.38
2022-08-01T21:17:25.142Z,101392.88
2022-08-01T21:19:39.042Z,101391.94
2022-08-01T21:21:49.358Z,101383.97
2022-08-01T21:23:58.451Z,101388.31
2022-08-01T21:26:02.125Z,101389.16
2022-08-01T21:28:06.367Z,101387.50
2022-08-01T21:30:10.831Z,101386.81
2022-08-01T21:32:17.037Z,101393.25
2022-08-01T21:34:22.012Z,101393.25
2022-08-01T21:36:27.407Z,101385.22
2022-08-01T21:38:34.256Z,101379.75
2022-08-01T21:40:37.971Z,101373.59
2022-08-01T21:42:44.649Z,101383.44
2022-08-01T21:44:48.813Z,101382.59
2022-08-01T21:46:53.533Z,101377.28
2022-08-01T21:48:58.213Z,101373.78
2022-08-01T21:51:10.643Z,101380.69
2022-08-01T21:53:32.411Z,101380.66
2022-08-01T21:55:52.359Z,101389.56
2022-08-01T21:58:24.697Z,101379.75
2022-08-01T22:00:28.615Z,101383.44
2022-08-01T22:02:37.225Z,101384.66
2022-08-01T22:04:46.315Z,101389.41
2022-08-01T22:06:54.089Z,101386.00
2022-08-01T22:09:04.238Z,101390.53
2022-08-01T22:11:09.082Z,101395.19
2022-08-01T22:13:12.888Z,101390.19
2022-08-01T22:15:16.590Z,101400.94
2022-08-01T22:17:22.544Z,101394.88
2022-08-01T22:19:32.730Z,101401.97
2022-08-01T22:21:51.543Z,101386.94
2022-08-01T22:23:55.005Z,101404.63
2022-08-01T22:25:59.219Z,101409.06
2022-08-01T22:28:09.386Z,101408.16
2022-08-01T22:30:15.865Z,101407.22
2022-08-01T22:32:19.901Z,101401.03
2022-08-01T22:34:26.492Z,101404.56
2022-08-01T22:36:32.236Z,101397.53
2022-08-01T22:38:37.076Z,101395.72
2022-08-01T22:40:46.687Z,101407.28
2022-08-01T22:42:57.015Z,101398.47
2022-08-01T22:45:07.195Z,101404.66
2022-08-01T22:47:19.186Z,101401.97
2022-08-01T22:49:31.136Z,101403.75
2022-08-01T22:51:43.912Z,101401.97
2022-08-01T22:54:05.447Z,101393.19
2022-08-01T22:56:11.056Z,101388.91
2022-08-01T22:58:18.041Z,101400.44
2022-08-01T23:00:21.493Z,101395.13
2022-08-01T23:02:27.007Z,101395.97
2022-08-01T23:04:38.288Z,101396.88
2022-08-01T23:06:43.900Z,101392.44
2022-08-01T23:08:48.979Z,101388.06
2022-08-01T23:10:54.462Z,101393.41
2022-08-01T23:12:58.099Z,101390.75
2022-08-01T23:15:02.328Z,101381.03
2022-08-01T23:17:26.758Z,101389.91
2022-08-01T23:19:30.780Z,101388.16
2022-08-01T23:21:38.729Z,101388.16
2022-08-01T23:23:47.650Z,101389.03
2022-08-01T23:25:51.405Z,101387.25
2022-08-01T23:28:05.085Z,101387.28
2022-08-01T23:30:10.936Z,101397.88
2022-08-01T23:32:15.265Z,101400.53
2022-08-01T23:34:20.141Z,101399.63
2022-08-01T23:36:23.853Z,101400.53
2022-08-01T23:38:27.431Z,101380.22
2022-08-01T23:40:31.938Z,101374.03
2022-08-01T23:42:35.556Z,101397.88
2022-08-01T23:44:41.448Z,101389.91
2022-08-01T23:46:45.080Z,101394.31
2022-08-01T23:48:48.896Z,101392.56
2022-08-01T23:50:52.596Z,101395.19
2022-08-01T23:52:56.826Z,101392.53
2022-08-01T23:55:03.359Z,101399.63
2022-08-01T23:57:15.239Z,101376.69
2022-08-01T23:59:20.822Z,101400.53
